createdAt,value
2018-09-29T00:00:46.189Z,14.10
2018-09-29T00:03:14.284Z,18.27
2018-09-29T00:05:42.241Z,12.70
2018-09-29T00:08:10.201Z,26.00
2018-09-29T00:10:38.159Z,10.17
2018-09-29T00:13:06.200Z,24.30
2018-09-29T00:15:34.162Z,17.83
2018-09-29T00:18:02.142Z,26.20
2018-09-29T00:20:30.102Z,21.03
2018-09-29T00:22:58.080Z,18.80
2018-09-29T00:25:26.042Z,17.37
2018-09-29T00:27:55.895Z,16.35
2018-09-29T00:30:24.797Z,15.70
2018-09-29T00:32:52.800Z,14.53
2018-09-29T00:35:20.906Z,14.77
2018-09-29T00:37:48.913Z,15.17
2018-09-29T00:40:16.881Z,20.90
2018-09-29T00:42:44.926Z,14.73
2018-09-29T00:45:12.893Z,28.87
2018-09-29T00:47:40.852Z,17.47
2018-09-29T00:50:08.820Z,14.63
2018-09-29T00:52:36.805Z,21.67
2018-09-29T00:55:04.790Z,18.97
2018-09-29T00:57:32.793Z,22.30
2018-09-29T01:00:00.777Z,23.87
2018-09-29T01:02:28.753Z,17.33
2018-09-29T01:04:56.819Z,13.33
2018-09-29T01:07:25.555Z,18.47
2018-09-29T01:09:53.536Z,16.40
2018-09-29T01:12:21.545Z,12.93
2018-09-29T01:14:49.513Z,21.23
2018-09-29T01:17:17.500Z,17.90
2018-09-29T01:19:45.559Z,17.63
2018-09-29T01:22:13.540Z,15.00
2018-09-29T01:24:41.505Z,19.27
2018-09-29T01:27:09.464Z,13.87
2018-09-29T01:29:37.445Z,14.03
2018-09-29T01:32:05.401Z,21.57
2018-09-29T01:34:33.400Z,25.20
2018-09-29T01:37:01.393Z,20.57
2018-09-29T01:39:29.393Z,22.93
2018-09-29T01:41:57.370Z,12.33
2018-09-29T01:44:26.150Z,21.73
2018-09-29T01:46:54.176Z,19.63
2018-09-29T01:49:22.184Z,17.50
2018-09-29T01:51:50.137Z,17.60
2018-09-29T01:54:18.145Z,12.53
2018-09-29T01:56:46.101Z,17.50
2018-09-29T01:59:14.076Z,21.37
2018-09-29T02:01:42.044Z,17.17
2018-09-29T02:04:16.764Z,15.90
2018-09-29T02:06:44.747Z,13.00
2018-09-29T02:09:12.721Z,16.03
2018-09-29T02:11:40.697Z,14.67
2018-09-29T02:14:08.684Z,13.37
2018-09-29T02:16:36.640Z,17.93
2018-09-29T02:19:04.589Z,18.00
2018-09-29T02:21:32.560Z,18.63
2018-09-29T02:24:00.533Z,21.93
2018-09-29T02:26:28.494Z,15.53
2018-09-29T02:28:56.846Z,19.75
2018-09-29T02:31:24.748Z,14.70
2018-09-29T02:33:52.711Z,12.70
2018-09-29T02:36:20.679Z,25.67
2018-09-29T02:38:48.648Z,19.53
2018-09-29T02:41:16.608Z,24.07
2018-09-29T02:43:44.586Z,17.43
2018-09-29T02:46:12.571Z,15.30
2018-09-29T02:48:40.537Z,12.23
2018-09-29T02:51:08.517Z,14.63
2018-09-29T02:53:36.524Z,18.40
2018-09-29T02:56:04.520Z,21.30
2018-09-29T02:58:32.514Z,17.17
2018-09-29T03:01:00.480Z,17.40
2018-09-29T03:03:28.441Z,14.00
2018-09-29T03:05:57.329Z,21.57
2018-09-29T03:08:25.299Z,14.10
2018-09-29T03:10:53.260Z,15.53
2018-09-29T03:13:21.243Z,9.13
2018-09-29T03:15:49.753Z,17.47
2018-09-29T03:18:17.709Z,22.90
2018-09-29T03:20:45.698Z,16.67
2018-09-29T03:23:13.710Z,13.73
2018-09-29T03:25:41.628Z,18.20
2018-09-29T03:28:09.596Z,17.57
2018-09-29T03:30:37.558Z,16.47
2018-09-29T03:33:05.529Z,17.70
2018-09-29T03:35:33.501Z,13.23
2018-09-29T03:38:01.466Z,18.33
2018-09-29T03:40:29.513Z,19.00
2018-09-29T03:42:58.013Z,30.65
2018-09-29T03:45:26.004Z,14.63
2018-09-29T03:47:53.991Z,9.73
2018-09-29T03:50:21.990Z,26.83
2018-09-29T03:52:50.013Z,16.80
2018-09-29T03:55:18.043Z,12.50
2018-09-29T03:57:46.035Z,15.60
2018-09-29T04:00:14.003Z,15.70
2018-09-29T04:02:41.988Z,11.40
2018-09-29T04:05:10.005Z,20.07
2018-09-29T04:07:37.992Z,15.70
2018-09-29T04:10:06.029Z,15.67
2018-09-29T04:12:34.039Z,18.83
2018-09-29T04:15:02.001Z,14.23
2018-09-29T04:17:30.007Z,17.27
2018-09-29T04:19:58.654Z,12.18
2018-09-29T04:22:26.641Z,17.80
2018-09-29T04:24:54.696Z,17.33
2018-09-29T04:27:22.683Z,16.23
2018-09-29T04:29:50.699Z,17.20
2018-09-29T04:32:18.704Z,14.40
2018-09-29T04:34:46.688Z,17.80
2018-09-29T04:37:14.677Z,16.63
2018-09-29T04:39:42.676Z,21.20
2018-09-29T04:42:10.656Z,19.20
2018-09-29T04:44:38.649Z,23.97
2018-09-29T04:47:06.657Z,11.97
2018-09-29T04:49:34.693Z,32.37
2018-09-29T04:52:02.668Z,19.73
2018-09-29T04:54:30.649Z,21.73
2018-09-29T04:56:59.297Z,23.87
2018-09-29T04:59:27.297Z,16.67
2018-09-29T05:01:55.265Z,22.47
2018-09-29T05:04:23.265Z,17.27
2018-09-29T05:06:51.254Z,26.37
2018-09-29T05:09:19.233Z,16.50
2018-09-29T05:11:47.201Z,13.07
2018-09-29T05:14:15.210Z,13.90
2018-09-29T05:16:43.190Z,19.83
2018-09-29T05:19:11.150Z,22.80
2018-09-29T05:21:39.177Z,15.97
2018-09-29T05:24:07.261Z,25.07
2018-09-29T05:26:35.221Z,17.03
2018-09-29T05:29:03.229Z,16.43
2018-09-29T05:31:31.181Z,14.83
2018-09-29T05:33:59.949Z,18.35
2018-09-29T05:36:27.930Z,15.83
2018-09-29T05:38:55.937Z,23.20
2018-09-29T05:41:23.905Z,14.20
2018-09-29T05:43:51.880Z,13.40
2018-09-29T05:46:19.892Z,17.70
2018-09-29T05:48:47.897Z,20.57
2018-09-29T05:51:15.874Z,22.20
2018-09-29T05:53:43.893Z,21.43
2018-09-29T05:56:11.883Z,17.10
2018-09-29T05:58:39.877Z,14.40
2018-09-29T06:01:07.850Z,16.80
2018-09-29T06:03:35.817Z,16.27
2018-09-29T06:06:03.865Z,21.23
2018-09-29T06:08:31.936Z,21.20
2018-09-29T06:11:00.645Z,13.78
2018-09-29T06:13:28.612Z,22.77
2018-09-29T06:15:56.583Z,13.50
2018-09-29T06:18:24.577Z,15.60
2018-09-29T06:20:52.614Z,21.90
2018-09-29T06:23:20.573Z,20.07
2018-09-29T06:25:48.541Z,13.63
2018-09-29T06:28:16.512Z,13.33
2018-09-29T06:30:44.533Z,19.90
2018-09-29T06:33:12.539Z,25.60
2018-09-29T06:35:40.553Z,28.50
2018-09-29T06:38:08.513Z,19.10
2018-09-29T06:40:36.798Z,15.70
2018-09-29T06:43:04.811Z,12.23
2018-09-29T06:45:32.907Z,20.83
2018-09-29T06:48:01.273Z,17.07
2018-09-29T06:50:29.266Z,15.47
2018-09-29T06:52:57.241Z,21.57
2018-09-29T06:55:25.201Z,12.20
2018-09-29T06:57:53.222Z,22.60
2018-09-29T07:00:21.229Z,21.60
2018-09-29T07:02:49.234Z,23.03
2018-09-29T07:05:17.237Z,14.53
2018-09-29T07:07:45.217Z,15.10
2018-09-29T07:10:13.205Z,21.17
2018-09-29T07:12:41.271Z,18.67
2018-09-29T07:15:09.368Z,13.33
2018-09-29T07:17:37.367Z,22.67
2018-09-29T07:20:05.370Z,15.67
2018-09-29T07:22:33.549Z,21.47
2018-09-29T07:25:01.976Z,26.50
2018-09-29T07:27:29.930Z,20.30
2018-09-29T07:29:57.893Z,21.43
2018-09-29T07:32:25.892Z,36.40
2018-09-29T07:34:53.909Z,22.47
2018-09-29T07:37:21.892Z,28.43
2018-09-29T07:39:49.935Z,22.50
2018-09-29T07:42:17.942Z,20.53
2018-09-29T07:44:45.913Z,19.20
2018-09-29T07:47:13.882Z,23.30
2018-09-29T07:49:41.881Z,17.93
2018-09-29T07:52:09.866Z,22.50
2018-09-29T07:54:37.841Z,20.40
2018-09-29T07:57:05.856Z,14.77
2018-09-29T07:59:33.825Z,12.57
2018-09-29T08:02:02.528Z,18.35
2018-09-29T08:04:30.502Z,16.97
2018-09-29T08:06:58.510Z,17.07
2018-09-29T08:09:26.521Z,23.23
2018-09-29T08:11:54.488Z,21.10
2018-09-29T08:14:22.469Z,11.70
2018-09-29T08:16:56.826Z,19.00
2018-09-29T08:19:24.806Z,15.43
2018-09-29T08:21:52.806Z,24.90
2018-09-29T08:24:21.941Z,15.50
2018-09-29T08:26:49.882Z,17.87
2018-09-29T08:29:17.845Z,13.67
2018-09-29T08:31:45.821Z,13.40
2018-09-29T08:34:13.768Z,20.27
2018-09-29T08:36:41.738Z,11.40
2018-09-29T08:39:10.197Z,18.23
2018-09-29T08:41:38.178Z,20.73
2018-09-29T08:44:06.301Z,10.83
2018-09-29T08:46:34.556Z,20.90
2018-09-29T08:49:03.242Z,10.63
2018-09-29T08:51:31.189Z,13.77
2018-09-29T08:53:59.175Z,19.67
2018-09-29T08:56:27.213Z,10.80
2018-09-29T08:58:55.217Z,20.00
2018-09-29T09:01:23.248Z,8.70
2018-09-29T09:03:51.285Z,11.63
2018-09-29T09:06:19.209Z,12.87
2018-09-29T09:08:47.188Z,10.63
2018-09-29T09:11:15.145Z,15.57
2018-09-29T09:16:31.629Z,15.20
2018-09-29T09:18:59.608Z,15.07
2018-09-29T09:21:27.585Z,12.73
2018-09-29T09:23:55.584Z,15.90
2018-09-29T09:26:23.542Z,10.33
2018-09-29T09:28:51.578Z,12.47
2018-09-29T09:31:19.568Z,17.27
2018-09-29T09:33:47.564Z,10.47
2018-09-29T09:36:15.523Z,16.40
2018-09-29T09:38:43.481Z,9.10
2018-09-29T09:41:11.458Z,7.73
2018-09-29T09:43:39.577Z,7.63
2018-09-29T09:46:07.560Z,4.03
2018-09-29T09:48:35.540Z,11.50
2018-09-29T09:51:04.404Z,10.50
2018-09-29T09:53:32.388Z,6.60
2018-09-29T09:56:00.469Z,12.30
2018-09-29T09:58:28.441Z,10.97
2018-09-29T10:01:02.031Z,9.13
2018-09-29T10:03:31.568Z,10.40
2018-09-29T10:05:59.626Z,16.43
2018-09-29T10:08:27.733Z,14.00
2018-09-29T10:10:55.712Z,14.90
2018-09-29T10:13:23.725Z,9.30
2018-09-29T10:15:51.902Z,9.57
2018-09-29T10:18:19.901Z,8.00
2018-09-29T10:20:47.952Z,9.17
2018-09-29T10:23:15.998Z,7.33
2018-09-29T10:25:44.093Z,6.43
2018-09-29T10:28:12.240Z,19.13
2018-09-29T10:30:40.348Z,17.50
2018-09-29T10:33:08.310Z,16.53
2018-09-29T10:35:36.335Z,16.43
2018-09-29T10:38:05.343Z,8.13
2018-09-29T10:40:33.317Z,8.97
2018-09-29T10:43:01.301Z,10.13
2018-09-29T10:45:29.269Z,13.40
2018-09-29T10:47:57.345Z,12.80
2018-09-29T10:50:25.388Z,14.13
2018-09-29T10:52:53.618Z,6.93
2018-09-29T10:55:21.730Z,8.68
2018-09-29T10:57:49.713Z,5.70
2018-09-29T11:00:17.704Z,11.10
2018-09-29T11:02:45.823Z,8.43
2018-09-29T11:05:13.827Z,12.43
2018-09-29T11:07:41.787Z,9.50
2018-09-29T11:10:09.785Z,14.07
2018-09-29T11:12:37.737Z,7.63
2018-09-29T11:15:05.810Z,6.63
2018-09-29T11:17:33.783Z,11.03
2018-09-29T11:20:01.763Z,14.90
2018-09-29T11:22:29.793Z,8.60
2018-09-29T11:24:58.502Z,11.13
2018-09-29T11:27:27.252Z,10.53
2018-09-29T11:29:55.252Z,4.90
2018-09-29T11:32:23.441Z,7.83
2018-09-29T11:34:51.420Z,8.17
2018-09-29T11:37:19.393Z,4.93
2018-09-29T11:39:47.364Z,5.70
2018-09-29T11:42:15.329Z,8.87
2018-09-29T11:44:43.456Z,14.57
2018-09-29T11:47:11.424Z,4.20
2018-09-29T11:49:39.411Z,5.47
2018-09-29T11:52:07.567Z,7.63
2018-09-29T11:54:36.317Z,7.97
2018-09-29T11:57:04.366Z,8.70
2018-09-29T11:59:32.601Z,6.97
2018-09-29T12:02:00.601Z,14.47
2018-09-29T12:04:28.654Z,8.73
2018-09-29T12:06:56.683Z,12.60
2018-09-29T12:09:24.717Z,11.97
2018-09-29T12:11:52.705Z,4.60
2018-09-29T12:14:20.770Z,7.60
2018-09-29T12:16:48.741Z,8.90
2018-09-29T12:19:16.876Z,6.83
2018-09-29T12:21:44.929Z,11.37
2018-09-29T12:24:13.029Z,13.13
2018-09-29T12:26:40.998Z,6.30
2018-09-29T12:29:08.978Z,6.80
2018-09-29T12:31:36.985Z,9.33
2018-09-29T12:34:05.045Z,8.20
2018-09-29T12:36:33.069Z,6.07
2018-09-29T12:39:02.012Z,6.17
2018-09-29T12:41:30.030Z,13.80
2018-09-29T12:43:58.101Z,6.90
2018-09-29T12:46:26.147Z,6.33
2018-09-29T12:48:54.154Z,6.53
2018-09-29T12:51:22.225Z,9.23
2018-09-29T12:53:50.462Z,10.70
2018-09-29T12:56:18.494Z,10.73
2018-09-29T12:58:46.506Z,3.93
2018-09-29T13:01:14.472Z,6.70
2018-09-29T13:03:42.503Z,9.50
2018-09-29T13:06:10.461Z,9.87
2018-09-29T13:08:38.477Z,7.37
2018-09-29T13:11:06.591Z,13.20
2018-09-29T13:13:34.548Z,9.43
2018-09-29T13:16:02.569Z,4.93
2018-09-29T13:18:30.590Z,7.40
2018-09-29T13:20:58.628Z,6.67
2018-09-29T13:23:26.646Z,4.13
2018-09-29T13:25:54.709Z,11.30
2018-09-29T13:28:22.701Z,7.07
2018-09-29T13:30:50.735Z,7.87
2018-09-29T13:33:18.717Z,8.17
2018-09-29T13:35:46.729Z,7.90
2018-09-29T13:38:14.682Z,11.30
2018-09-29T13:40:42.664Z,5.77
2018-09-29T13:43:10.696Z,7.30
2018-09-29T13:45:38.673Z,8.53
2018-09-29T13:48:07.141Z,7.80
2018-09-29T13:50:35.144Z,12.60
2018-09-29T13:53:07.252Z,3.67
2018-09-29T13:55:35.273Z,4.53
2018-09-29T13:58:03.682Z,5.90
2018-09-29T14:00:31.752Z,6.90
2018-09-29T14:03:00.132Z,5.17
2018-09-29T14:05:28.136Z,5.93
2018-09-29T14:07:56.186Z,4.77
2018-09-29T14:10:25.255Z,5.70
2018-09-29T14:12:53.378Z,4.57
2018-09-29T14:15:21.381Z,3.03
2018-09-29T14:17:49.684Z,5.90
2018-09-29T14:20:17.691Z,5.93
2018-09-29T14:22:45.825Z,3.47
2018-09-29T14:25:13.869Z,3.93
2018-09-29T14:27:41.904Z,8.13
2018-09-29T14:30:09.988Z,6.50
2018-09-29T14:32:38.086Z,9.53
2018-09-29T14:35:06.067Z,5.70
2018-09-29T14:37:34.191Z,7.60
2018-09-29T14:40:02.180Z,8.63
2018-09-29T14:42:30.164Z,3.17
2018-09-29T14:44:58.189Z,4.97
2018-09-29T14:47:26.159Z,4.77
2018-09-29T14:49:54.231Z,4.30
2018-09-29T14:52:22.255Z,3.33
2018-09-29T14:54:50.202Z,6.63
2018-09-29T14:57:18.249Z,6.43
2018-09-29T14:59:46.251Z,9.43
2018-09-29T15:02:14.213Z,6.50
2018-09-29T15:04:43.071Z,3.90
2018-09-29T15:07:11.121Z,5.73
2018-09-29T15:09:39.843Z,7.43
2018-09-29T15:12:07.864Z,6.50
2018-09-29T15:14:35.927Z,5.90
2018-09-29T15:17:03.939Z,7.07
2018-09-29T15:19:32.141Z,6.60
2018-09-29T15:22:00.374Z,5.05
2018-09-29T15:24:28.374Z,6.70
2018-09-29T15:26:56.391Z,7.50
2018-09-29T15:29:24.335Z,5.20
2018-09-29T15:31:52.335Z,4.20
2018-09-29T15:34:20.302Z,5.50
2018-09-29T15:36:48.360Z,4.10
2018-09-29T15:39:16.333Z,8.23
2018-09-29T15:41:44.325Z,4.97
2018-09-29T15:44:12.367Z,5.07
2018-09-29T15:46:40.601Z,5.43
2018-09-29T15:49:08.590Z,4.70
2018-09-29T15:51:36.664Z,4.70
2018-09-29T15:54:04.727Z,8.70
2018-09-29T15:56:32.719Z,4.33
2018-09-29T15:59:00.673Z,4.43
2018-09-29T16:01:28.688Z,11.90
2018-09-29T16:03:56.753Z,6.57
2018-09-29T16:06:24.852Z,9.63
2018-09-29T16:08:53.011Z,7.27
2018-09-29T16:11:21.049Z,7.73
2018-09-29T16:13:49.295Z,7.97
2018-09-29T16:16:17.394Z,4.90
2018-09-29T16:18:45.441Z,4.20
2018-09-29T16:21:13.456Z,5.60
2018-09-29T16:23:41.463Z,3.73
2018-09-29T16:26:09.472Z,9.30
2018-09-29T16:28:37.646Z,9.37
2018-09-29T16:31:05.883Z,8.70
2018-09-29T16:33:33.870Z,6.90
2018-09-29T16:36:01.966Z,10.50
2018-09-29T16:38:30.040Z,10.90
2018-09-29T16:40:57.965Z,13.93
2018-09-29T16:43:26.058Z,8.93
2018-09-29T16:45:54.005Z,15.75
2018-09-29T16:48:22.014Z,11.90
2018-09-29T16:50:50.054Z,11.73
2018-09-29T16:53:18.069Z,7.23
2018-09-29T16:55:46.068Z,8.63
2018-09-29T16:58:14.056Z,6.77
2018-09-29T17:00:42.074Z,9.53
2018-09-29T17:03:10.178Z,8.70
2018-09-29T17:05:38.159Z,11.97
2018-09-29T17:08:06.632Z,10.77
2018-09-29T17:10:41.152Z,16.17
2018-09-29T17:13:09.173Z,16.90
2018-09-29T17:15:37.244Z,14.70
2018-09-29T17:18:05.233Z,14.90
2018-09-29T17:20:33.378Z,15.43
2018-09-29T17:23:02.398Z,14.20
2018-09-29T17:25:31.318Z,19.33
2018-09-29T17:27:59.433Z,12.33
2018-09-29T17:30:27.437Z,16.70
2018-09-29T17:32:55.442Z,16.83
2018-09-29T17:35:23.409Z,11.77
2018-09-29T17:37:51.515Z,19.50
2018-09-29T17:40:19.585Z,20.15
2018-09-29T17:42:47.607Z,15.40
2018-09-29T17:45:15.613Z,19.20
2018-09-29T17:47:43.596Z,15.10
2018-09-29T17:50:12.513Z,21.53
2018-09-29T17:52:40.598Z,24.03
2018-09-29T17:55:08.604Z,20.13
2018-09-29T17:57:36.593Z,21.00
2018-09-29T18:00:04.621Z,25.40
2018-09-29T18:02:32.636Z,21.70
2018-09-29T18:05:00.661Z,20.93
2018-09-29T18:07:28.791Z,22.97
2018-09-29T18:09:56.661Z,18.90
2018-09-29T18:12:24.633Z,22.03
2018-09-29T18:14:52.717Z,18.90
2018-09-29T18:17:20.788Z,23.40
2018-09-29T18:19:48.784Z,23.47
2018-09-29T18:22:16.746Z,19.87
2018-09-29T18:24:44.777Z,23.93
2018-09-29T18:27:13.353Z,26.02
2018-09-29T18:29:41.424Z,20.57
2018-09-29T18:32:09.605Z,24.83
2018-09-29T18:34:37.786Z,25.53
2018-09-29T18:37:05.819Z,22.30
2018-09-29T18:39:33.772Z,28.40
2018-09-29T18:42:01.746Z,32.00
2018-09-29T18:44:29.768Z,23.23
2018-09-29T18:46:57.737Z,24.43
2018-09-29T18:49:25.704Z,21.27
2018-09-29T18:51:53.763Z,16.73
2018-09-29T18:54:21.685Z,19.77
2018-09-29T18:56:49.676Z,25.20
2018-09-29T18:59:17.677Z,24.70
2018-09-29T19:01:45.953Z,20.17
2018-09-29T19:04:14.118Z,26.30
2018-09-29T19:06:42.137Z,25.00
2018-09-29T19:09:11.805Z,26.57
2018-09-29T19:11:40.414Z,22.87
2018-09-29T19:14:08.565Z,21.57
2018-09-29T19:16:36.689Z,15.50
2018-09-29T19:19:04.674Z,12.80
2018-09-29T19:21:32.649Z,19.00
2018-09-29T19:24:00.947Z,13.33
2018-09-29T19:26:28.952Z,19.30
2018-09-29T19:28:57.091Z,22.00
2018-09-29T19:31:25.125Z,11.90
2018-09-29T19:33:53.113Z,14.50
2018-09-29T19:36:21.173Z,19.07
2018-09-29T19:38:49.181Z,21.43
2018-09-29T19:41:17.453Z,22.60
2018-09-29T19:43:52.013Z,21.53
2018-09-29T19:46:20.547Z,20.57
2018-09-29T19:48:48.615Z,20.80
2018-09-29T19:51:16.637Z,27.10
2018-09-29T19:53:44.831Z,19.80
2018-09-29T19:56:12.932Z,19.93
2018-09-29T19:58:40.963Z,23.40
2018-09-29T20:01:08.981Z,22.07
2018-09-29T20:03:37.073Z,25.93
2018-09-29T20:06:05.181Z,24.83
2018-09-29T20:08:33.176Z,24.83
2018-09-29T20:11:01.197Z,23.03
2018-09-29T20:13:29.218Z,25.90
2018-09-29T20:15:57.263Z,22.93
2018-09-29T20:18:25.269Z,25.47
2018-09-29T20:20:53.293Z,24.77
2018-09-29T20:23:21.273Z,24.53
2018-09-29T20:25:49.579Z,25.80
2018-09-29T20:28:17.618Z,18.00
2018-09-29T20:30:52.453Z,30.60
2018-09-29T20:33:20.521Z,19.03
2018-09-29T20:35:48.532Z,18.13
2018-09-29T20:38:16.533Z,19.30
2018-09-29T20:40:45.473Z,18.43
2018-09-29T20:43:13.517Z,14.97
2018-09-29T20:45:41.620Z,14.10
2018-09-29T20:48:09.657Z,17.40
2018-09-29T20:50:37.833Z,17.13
2018-09-29T20:53:05.877Z,14.43
2018-09-29T20:55:33.873Z,12.50
2018-09-29T20:58:01.896Z,17.67
2018-09-29T21:00:29.914Z,19.90
2018-09-29T21:02:57.949Z,19.80
2018-09-29T21:05:25.946Z,30.63
2018-09-29T21:07:53.971Z,16.30
2018-09-29T21:10:21.958Z,22.97
2018-09-29T21:12:49.995Z,24.67
2018-09-29T21:15:17.950Z,17.27
2018-09-29T21:17:46.546Z,16.45
2018-09-29T21:20:14.602Z,16.97
2018-09-29T21:22:43.197Z,18.30
2018-09-29T21:25:11.314Z,18.77
2018-09-29T21:27:39.329Z,21.50
2018-09-29T21:30:07.411Z,25.27
2018-09-29T21:32:35.378Z,20.53
2018-09-29T21:35:03.369Z,22.30
2018-09-29T21:37:31.367Z,18.10
2018-09-29T21:39:59.366Z,31.63
2018-09-29T21:42:27.463Z,22.03
2018-09-29T21:44:55.440Z,23.97
2018-09-29T21:47:23.429Z,29.70
2018-09-29T21:49:51.442Z,36.87
2018-09-29T21:52:19.446Z,28.13
2018-09-29T21:54:47.386Z,18.67
2018-09-29T21:57:15.362Z,25.37
2018-09-29T21:59:43.522Z,17.00
2018-09-29T22:02:11.486Z,17.20
2018-09-29T22:04:39.541Z,15.97
2018-09-29T22:07:07.436Z,21.10
2018-09-29T22:09:35.497Z,16.70
2018-09-29T22:12:03.463Z,17.43
2018-09-29T22:14:31.432Z,20.60
2018-09-29T22:16:59.421Z,19.60
2018-09-29T22:19:27.435Z,20.70
2018-09-29T22:21:55.428Z,15.60
2018-09-29T22:24:23.502Z,18.60
2018-09-29T22:26:51.467Z,18.03
2018-09-29T22:29:19.438Z,16.50
2018-09-29T22:31:47.474Z,15.70
2018-09-29T22:34:15.406Z,16.23
2018-09-29T22:36:43.385Z,15.70
2018-09-29T22:39:12.367Z,14.47
2018-09-29T22:41:40.324Z,17.17
2018-09-29T22:44:08.580Z,13.40
2018-09-29T22:46:36.549Z,18.97
2018-09-29T22:49:04.541Z,12.80
2018-09-29T22:51:32.942Z,11.70
2018-09-29T22:54:00.994Z,13.23
2018-09-29T22:56:28.990Z,20.07
2018-09-29T22:58:57.000Z,13.40
2018-09-29T23:01:24.999Z,12.43
2018-09-29T23:03:53.021Z,14.43
2018-09-29T23:06:21.170Z,12.40
2018-09-29T23:08:49.192Z,16.13
2018-09-29T23:11:18.104Z,17.33
2018-09-29T23:13:46.093Z,14.93
2018-09-29T23:16:14.089Z,12.27
2018-09-29T23:18:42.221Z,12.90
2018-09-29T23:21:10.205Z,9.90
2018-09-29T23:23:38.237Z,10.83
2018-09-29T23:26:06.257Z,20.60
2018-09-29T23:28:34.297Z,11.73
2018-09-29T23:31:02.374Z,12.83
2018-09-29T23:33:30.372Z,14.30
2018-09-29T23:35:58.374Z,10.05
2018-09-29T23:38:26.376Z,12.85
2018-09-29T23:40:54.377Z,12.43
2018-09-29T23:43:22.440Z,9.40
2018-09-29T23:45:50.453Z,12.70
2018-09-29T23:48:18.480Z,16.60
2018-09-29T23:50:46.594Z,13.00
2018-09-29T23:53:14.598Z,13.70
2018-09-29T23:55:42.585Z,16.30
2018-09-29T23:58:10.845Z,13.57
